sensor_id;sensor_type;location;lat;lon;timestamp;pressure;altitude;pressure_sealevel;temperature;humidity
53246;BME280;39569;51.090;-1.786;2023-03-23T00:00:10;99009.91;;;16.04;55.96
53246;BME280;39569;51.090;-1.786;2023-03-23T00:02:37;99030.69;;;16.30;54.74
53246;BME280;39569;51.090;-1.786;2023-03-23T00:05:05;99031.53;;;15.87;56.47
53246;BME280;39569;51.090;-1.786;2023-03-23T00:07:34;99026.53;;;16.17;55.53
53246;BME280;39569;51.090;-1.786;2023-03-23T00:10:01;99026.63;;;16.27;54.67
53246;BME280;39569;51.090;-1.786;2023-03-23T00:12:31;99016.94;;;16.05;55.36
53246;BME280;39569;51.090;-1.786;2023-03-23T00:14:59;99024.22;;;15.83;55.23
53246;BME280;39569;51.090;-1.786;2023-03-23T00:17:27;99024.63;;;15.74;55.37
53246;BME280;39569;51.090;-1.786;2023-03-23T00:19:54;99031.38;;;15.55;55.82
53246;BME280;39569;51.090;-1.786;2023-03-23T00:22:22;99036.44;;;15.90;54.79
53246;BME280;39569;51.090;-1.786;2023-03-23T00:24:51;99032.56;;;16.29;53.80
53246;BME280;39569;51.090;-1.786;2023-03-23T00:27:19;99040.09;;;16.49;52.91
53246;BME280;39569;51.090;-1.786;2023-03-23T00:29:47;99054.41;;;15.68;55.14
53246;BME280;39569;51.090;-1.786;2023-03-23T00:32:18;99053.25;;;16.02;54.06
53246;BME280;39569;51.090;-1.786;2023-03-23T00:34:46;99062.06;;;15.76;53.69
53246;BME280;39569;51.090;-1.786;2023-03-23T00:37:14;99054.28;;;16.18;52.84
53246;BME280;39569;51.090;-1.786;2023-03-23T00:39:43;99053.47;;;16.17;52.72
53246;BME280;39569;51.090;-1.786;2023-03-23T00:42:14;99077.13;;;15.94;53.24
53246;BME280;39569;51.090;-1.786;2023-03-23T00:44:42;99067.16;;;15.39;54.21
53246;BME280;39569;51.090;-1.786;2023-03-23T00:47:11;99054.69;;;16.31;52.59
53246;BME280;39569;51.090;-1.786;2023-03-23T00:49:38;99057.97;;;16.55;51.94
53246;BME280;39569;51.090;-1.786;2023-03-23T00:52:06;99072.72;;;15.88;53.38
53246;BME280;39569;51.090;-1.786;2023-03-23T00:54:33;99073.09;;;15.74;53.94
53246;BME280;39569;51.090;-1.786;2023-03-23T00:57:01;99067.97;;;15.73;54.47
53246;BME280;39569;51.090;-1.786;2023-03-23T00:59:30;99078.78;;;15.78;54.63
53246;BME280;39569;51.090;-1.786;2023-03-23T01:01:56;99076.47;;;15.87;54.66
53246;BME280;39569;51.090;-1.786;2023-03-23T01:04:23;99080.34;;;15.74;54.88
53246;BME280;39569;51.090;-1.786;2023-03-23T01:06:50;99082.63;;;15.82;54.37
53246;BME280;39569;51.090;-1.786;2023-03-23T01:09:19;99091.13;;;15.57;55.31
53246;BME280;39569;51.090;-1.786;2023-03-23T01:11:47;99084.00;;;15.85;54.87
53246;BME280;39569;51.090;-1.786;2023-03-23T01:14:16;99082.66;;;14.99;56.90
53246;BME280;39569;51.090;-1.786;2023-03-23T01:16:45;99091.72;;;15.43;55.43
53246;BME280;39569;51.090;-1.786;2023-03-23T01:19:11;99080.00;;;16.09;54.17
53246;BME280;39569;51.090;-1.786;2023-03-23T01:21:39;99087.72;;;15.29;55.55
53246;BME280;39569;51.090;-1.786;2023-03-23T01:24:06;99096.53;;;15.57;54.79
53246;BME280;39569;51.090;-1.786;2023-03-23T01:26:33;99088.94;;;15.71;54.83
53246;BME280;39569;51.090;-1.786;2023-03-23T01:29:00;99081.50;;;15.12;56.18
53246;BME280;39569;51.090;-1.786;2023-03-23T01:31:27;99084.53;;;15.48;55.37
53246;BME280;39569;51.090;-1.786;2023-03-23T01:33:55;99084.97;;;16.17;53.54
53246;BME280;39569;51.090;-1.786;2023-03-23T01:36:24;99084.53;;;15.15;56.20
53246;BME280;39569;51.090;-1.786;2023-03-23T01:38:52;99090.44;;;15.45;55.27
53246;BME280;39569;51.090;-1.786;2023-03-23T01:41:19;99093.41;;;15.65;54.91
53246;BME280;39569;51.090;-1.786;2023-03-23T01:43:57;99094.03;;;15.89;53.50
53246;BME280;39569;51.090;-1.786;2023-03-23T01:46:27;99092.66;;;15.37;55.01
53246;BME280;39569;51.090;-1.786;2023-03-23T01:48:56;99099.38;;;15.34;54.79
53246;BME280;39569;51.090;-1.786;2023-03-23T01:51:24;99096.34;;;15.81;54.03
53246;BME280;39569;51.090;-1.786;2023-03-23T01:53:55;99108.19;;;15.46;54.32
53246;BME280;39569;51.090;-1.786;2023-03-23T01:56:25;99098.22;;;16.02;53.48
53246;BME280;39569;51.090;-1.786;2023-03-23T01:58:55;99101.00;;;16.07;53.25
53246;BME280;39569;51.090;-1.786;2023-03-23T02:01:23;99103.13;;;15.66;53.66
53246;BME280;39569;51.090;-1.786;2023-03-23T02:03:53;99090.06;;;15.09;55.19
53246;BME280;39569;51.090;-1.786;2023-03-23T02:06:22;99098.31;;;15.35;55.07
53246;BME280;39569;51.090;-1.786;2023-03-23T02:08:50;99098.22;;;16.02;52.71
53246;BME280;39569;51.090;-1.786;2023-03-23T02:11:20;99099.50;;;15.11;55.39
53246;BME280;39569;51.090;-1.786;2023-03-23T02:13:48;99098.31;;;15.35;55.27
53246;BME280;39569;51.090;-1.786;2023-03-23T02:16:21;99097.47;;;15.02;55.99
53246;BME280;39569;51.090;-1.786;2023-03-23T02:18:57;99102.06;;;15.34;55.57
53246;BME280;39569;51.090;-1.786;2023-03-23T02:22:12;99104.16;;;14.99;55.52
53246;BME280;39569;51.090;-1.786;2023-03-23T02:24:59;99101.84;;;15.52;54.83
53246;BME280;39569;51.090;-1.786;2023-03-23T02:28:08;99105.78;;;15.33;55.35
53246;BME280;39569;51.090;-1.786;2023-03-23T02:30:49;99103.09;;;14.72;56.30
53246;BME280;39569;51.090;-1.786;2023-03-23T02:33:29;99102.84;;;15.35;56.02
53246;BME280;39569;51.090;-1.786;2023-03-23T02:36:00;99106.13;;;15.70;54.68
53246;BME280;39569;51.090;-1.786;2023-03-23T02:38:31;99103.56;;;15.58;55.20
53246;BME280;39569;51.090;-1.786;2023-03-23T02:41:01;99102.38;;;15.71;54.24
53246;BME280;39569;51.090;-1.786;2023-03-23T02:43:31;99108.22;;;15.02;56.27
53246;BME280;39569;51.090;-1.786;2023-03-23T02:46:01;99103.00;;;14.95;57.12
53246;BME280;39569;51.090;-1.786;2023-03-23T02:48:33;99102.88;;;15.85;54.81
53246;BME280;39569;51.090;-1.786;2023-03-23T02:51:01;99105.19;;;14.98;57.12
53246;BME280;39569;51.090;-1.786;2023-03-23T02:53:30;99093.69;;;15.47;56.01
53246;BME280;39569;51.090;-1.786;2023-03-23T02:55:59;99105.13;;;15.76;54.86
53246;BME280;39569;51.090;-1.786;2023-03-23T02:58:28;99105.78;;;15.33;55.33
53246;BME280;39569;51.090;-1.786;2023-03-23T03:00:56;99112.66;;;15.57;54.68
53246;BME280;39569;51.090;-1.786;2023-03-23T03:03:26;99114.91;;;15.99;53.83
53246;BME280;39569;51.090;-1.786;2023-03-23T03:06:05;99113.63;;;15.68;54.63
53246;BME280;39569;51.090;-1.786;2023-03-23T03:08:38;99123.88;;;15.05;56.18
53246;BME280;39569;51.090;-1.786;2023-03-23T03:11:12;99123.72;;;15.77;54.43
53246;BME280;39569;51.090;-1.786;2023-03-23T03:13:45;99125.47;;;15.50;55.10
53246;BME280;39569;51.090;-1.786;2023-03-23T03:16:21;99120.13;;;15.39;55.67
53246;BME280;39569;51.090;-1.786;2023-03-23T03:18:56;99127.63;;;15.87;53.83
53246;BME280;39569;51.090;-1.786;2023-03-23T03:21:28;99127.19;;;15.73;54.18
53246;BME280;39569;51.090;-1.786;2023-03-23T03:23:58;99127.75;;;15.75;54.08
53246;BME280;39569;51.090;-1.786;2023-03-23T03:26:28;99130.66;;;15.73;54.39
53246;BME280;39569;51.090;-1.786;2023-03-23T03:28:56;99122.69;;;14.84;56.63
53246;BME280;39569;51.090;-1.786;2023-03-23T03:31:27;99122.78;;;15.50;55.05
53246;BME280;39569;51.090;-1.786;2023-03-23T03:33:54;99125.41;;;15.62;54.26
53246;BME280;39569;51.090;-1.786;2023-03-23T03:36:22;99126.34;;;15.89;53.98
53246;BME280;39569;51.090;-1.786;2023-03-23T03:38:52;99121.06;;;16.16;52.82
53246;BME280;39569;51.090;-1.786;2023-03-23T03:41:19;99120.78;;;15.29;55.13
53246;BME280;39569;51.090;-1.786;2023-03-23T03:43:46;99116.38;;;15.90;53.57
53246;BME280;39569;51.090;-1.786;2023-03-23T03:46:13;99123.09;;;15.70;54.23
53246;BME280;39569;51.090;-1.786;2023-03-23T03:48:40;99130.75;;;15.95;53.35
53246;BME280;39569;51.090;-1.786;2023-03-23T03:51:06;99129.19;;;15.99;53.25
53246;BME280;39569;51.090;-1.786;2023-03-23T03:53:34;99129.06;;;15.72;54.00
53246;BME280;39569;51.090;-1.786;2023-03-23T03:56:02;99131.34;;;15.64;54.28
53246;BME280;39569;51.090;-1.786;2023-03-23T03:58:29;99132.41;;;15.63;54.23
53246;BME280;39569;51.090;-1.786;2023-03-23T04:00:58;99133.28;;;15.68;54.48
53246;BME280;39569;51.090;-1.786;2023-03-23T04:03:25;99129.78;;;15.51;54.97
53246;BME280;39569;51.090;-1.786;2023-03-23T04:05:53;99120.97;;;15.23;56.32
53246;BME280;39569;51.090;-1.786;2023-03-23T04:08:21;99135.41;;;15.66;55.07
53246;BME280;39569;51.090;-1.786;2023-03-23T04:10:48;99134.69;;;15.54;55.25
53246;BME280;39569;51.090;-1.786;2023-03-23T04:13:16;99143.53;;;15.38;56.70
53246;BME280;39569;51.090;-1.786;2023-03-23T04:15:43;99146.88;;;15.12;57.45
53246;BME280;39569;51.090;-1.786;2023-03-23T04:18:10;99143.66;;;15.60;56.56
53246;BME280;39569;51.090;-1.786;2023-03-23T04:20:40;99151.84;;;15.20;57.80
53246;BME280;39569;51.090;-1.786;2023-03-23T04:23:07;99150.78;;;15.49;57.61
53246;BME280;39569;51.090;-1.786;2023-03-23T04:25:34;99147.09;;;15.11;58.80
53246;BME280;39569;51.090;-1.786;2023-03-23T04:28:01;99150.94;;;15.15;58.40
53246;BME280;39569;51.090;-1.786;2023-03-23T04:30:29;99152.91;;;16.02;56.14
53246;BME280;39569;51.090;-1.786;2023-03-23T04:32:57;99155.78;;;15.62;57.24
53246;BME280;39569;51.090;-1.786;2023-03-23T04:35:24;99145.75;;;15.91;56.75
53246;BME280;39569;51.090;-1.786;2023-03-23T04:37:51;99142.44;;;15.84;56.97
53246;BME280;39569;51.090;-1.786;2023-03-23T04:40:20;99141.59;;;15.84;56.47
53246;BME280;39569;51.090;-1.786;2023-03-23T04:42:47;99140.44;;;15.30;58.19
53246;BME280;39569;51.090;-1.786;2023-03-23T04:45:18;99138.00;;;16.16;56.31
53246;BME280;39569;51.090;-1.786;2023-03-23T04:47:49;99134.59;;;15.83;57.09
53246;BME280;39569;51.090;-1.786;2023-03-23T04:50:20;99136.94;;;15.79;57.12
53246;BME280;39569;51.090;-1.786;2023-03-23T04:52:49;99135.72;;;15.87;57.09
53246;BME280;39569;51.090;-1.786;2023-03-23T04:55:18;99149.69;;;15.84;57.57
53246;BME280;39569;51.090;-1.786;2023-03-23T04:57:46;99147.97;;;15.44;59.09
53246;BME280;39569;51.090;-1.786;2023-03-23T05:00:13;99144.19;;;15.12;59.59
53246;BME280;39569;51.090;-1.786;2023-03-23T05:02:42;99142.50;;;16.11;56.89
53246;BME280;39569;51.090;-1.786;2023-03-23T05:05:13;99140.75;;;16.38;56.51
53246;BME280;39569;51.090;-1.786;2023-03-23T05:07:41;99131.16;;;16.09;57.15
53246;BME280;39569;51.090;-1.786;2023-03-23T05:10:09;99134.38;;;15.67;58.02
53246;BME280;39569;51.090;-1.786;2023-03-23T05:12:37;99137.72;;;15.96;57.69
53246;BME280;39569;51.090;-1.786;2023-03-23T05:15:05;99131.25;;;16.35;56.14
53246;BME280;39569;51.090;-1.786;2023-03-23T05:17:32;99127.53;;;16.36;56.33
53246;BME280;39569;51.090;-1.786;2023-03-23T05:19:59;99131.16;;;16.09;57.32
53246;BME280;39569;51.090;-1.786;2023-03-23T05:22:30;99130.66;;;15.73;58.84
53246;BME280;39569;51.090;-1.786;2023-03-23T05:24:57;99120.41;;;16.09;57.55
53246;BME280;39569;51.090;-1.786;2023-03-23T05:27:24;99122.88;;;16.10;57.39
53246;BME280;39569;51.090;-1.786;2023-03-23T05:29:55;99118.50;;;16.69;56.26
53246;BME280;39569;51.090;-1.786;2023-03-23T05:32:23;99121.63;;;16.83;55.59
53246;BME280;39569;51.090;-1.786;2023-03-23T05:34:54;99115.03;;;16.30;56.71
53246;BME280;39569;51.090;-1.786;2023-03-23T05:37:21;99115.47;;;16.22;57.59
53246;BME280;39569;51.090;-1.786;2023-03-23T05:39:49;99123.84;;;16.04;57.85
53246;BME280;39569;51.090;-1.786;2023-03-23T05:42:19;99105.91;;;16.53;56.47
53246;BME280;39569;51.090;-1.786;2023-03-23T05:44:45;99106.44;;;15.90;57.94
53246;BME280;39569;51.090;-1.786;2023-03-23T05:47:12;99116.00;;;15.48;58.84
53246;BME280;39569;51.090;-1.786;2023-03-23T05:49:39;99124.41;;;15.85;59.06
53246;BME280;39569;51.090;-1.786;2023-03-23T05:52:06;99105.72;;;16.38;58.55
53246;BME280;39569;51.090;-1.786;2023-03-23T05:54:33;99116.09;;;16.73;58.17
53246;BME280;39569;51.090;-1.786;2023-03-23T05:57:02;99103.78;;;16.55;58.46
53246;BME280;39569;51.090;-1.786;2023-03-23T05:59:31;99112.19;;;16.58;58.60
53246;BME280;39569;51.090;-1.786;2023-03-23T06:01:58;99119.91;;;16.33;59.50
53246;BME280;39569;51.090;-1.786;2023-03-23T06:04:26;99106.53;;;16.60;58.63
53246;BME280;39569;51.090;-1.786;2023-03-23T06:06:52;99105.13;;;15.76;61.44
53246;BME280;39569;51.090;-1.786;2023-03-23T06:09:20;99110.84;;;15.80;60.91
53246;BME280;39569;51.090;-1.786;2023-03-23T06:11:48;99111.91;;;15.79;61.03
53246;BME280;39569;51.090;-1.786;2023-03-23T06:14:17;99100.50;;;16.31;59.49
53246;BME280;39569;51.090;-1.786;2023-03-23T06:16:44;99110.59;;;16.19;59.37
53246;BME280;39569;51.090;-1.786;2023-03-23T06:19:10;99098.13;;;16.56;58.29
53246;BME280;39569;51.090;-1.786;2023-03-23T06:21:37;99119.31;;;15.38;60.40
53246;BME280;39569;51.090;-1.786;2023-03-23T06:24:05;99119.72;;;16.18;58.99
53246;BME280;39569;51.090;-1.786;2023-03-23T06:26:34;99109.91;;;15.91;59.68
53246;BME280;39569;51.090;-1.786;2023-03-23T06:29:02;99125.03;;;15.92;59.66
53246;BME280;39569;51.090;-1.786;2023-03-23T06:31:33;99120.13;;;15.22;61.07
53246;BME280;39569;51.090;-1.786;2023-03-23T06:34:00;99123.25;;;15.81;60.18
53246;BME280;39569;51.090;-1.786;2023-03-23T06:36:28;99121.25;;;15.54;60.22
53246;BME280;39569;51.090;-1.786;2023-03-23T06:38:55;99122.81;;;15.89;59.27
53246;BME280;39569;51.090;-1.786;2023-03-23T06:41:21;99127.28;;;15.45;60.67
53246;BME280;39569;51.090;-1.786;2023-03-23T06:43:48;99123.66;;;15.72;59.69
53246;BME280;39569;51.090;-1.786;2023-03-23T06:46:15;99129.19;;;15.33;59.67
53246;BME280;39569;51.090;-1.786;2023-03-23T06:48:43;99128.47;;;16.09;58.71
53246;BME280;39569;51.090;-1.786;2023-03-23T06:51:10;99131.25;;;15.75;59.37
53246;BME280;39569;51.090;-1.786;2023-03-23T06:53:37;99125.88;;;16.14;57.98
53246;BME280;39569;51.090;-1.786;2023-03-23T06:56:04;99142.22;;;15.91;57.96
53246;BME280;39569;51.090;-1.786;2023-03-23T06:58:31;99140.59;;;16.06;58.23
53246;BME280;39569;51.090;-1.786;2023-03-23T07:00:58;99146.03;;;16.33;57.29
53246;BME280;39569;51.090;-1.786;2023-03-23T07:03:26;99145.16;;;16.27;57.43
53246;BME280;39569;51.090;-1.786;2023-03-23T07:05:54;99141.63;;;16.65;57.02
53246;BME280;39569;51.090;-1.786;2023-03-23T07:08:21;99135.44;;;16.05;57.63
53246;BME280;39569;51.090;-1.786;2023-03-23T07:10:50;99130.09;;;16.69;56.54
53246;BME280;39569;51.090;-1.786;2023-03-23T07:13:17;99129.03;;;16.49;56.63
53246;BME280;39569;51.090;-1.786;2023-03-23T07:15:44;99131.22;;;17.00;55.55
53246;BME280;39569;51.090;-1.786;2023-03-23T07:18:11;99126.00;;;17.20;55.26
53246;BME280;39569;51.090;-1.786;2023-03-23T07:20:38;99133.78;;;17.12;55.52
53246;BME280;39569;51.090;-1.786;2023-03-23T07:23:06;99139.19;;;16.90;56.39
53246;BME280;39569;51.090;-1.786;2023-03-23T07:25:34;99138.56;;;16.56;56.96
53246;BME280;39569;51.090;-1.786;2023-03-23T07:28:03;99144.69;;;16.30;57.96
53246;BME280;39569;51.090;-1.786;2023-03-23T07:30:30;99140.53;;;16.88;56.82
53246;BME280;39569;51.090;-1.786;2023-03-23T07:32:57;99145.00;;;16.77;57.05
53246;BME280;39569;51.090;-1.786;2023-03-23T07:35:24;99145.97;;;16.93;56.18
53246;BME280;39569;51.090;-1.786;2023-03-23T07:37:52;99151.53;;;17.08;56.17
53246;BME280;39569;51.090;-1.786;2023-03-23T07:40:20;99155.09;;;17.40;55.58
53246;BME280;39569;51.090;-1.786;2023-03-23T07:42:56;99143.63;;;17.54;54.97
53246;BME280;39569;51.090;-1.786;2023-03-23T07:45:24;99148.38;;;16.46;56.69
53246;BME280;39569;51.090;-1.786;2023-03-23T07:47:51;99150.47;;;16.82;56.32
53246;BME280;39569;51.090;-1.786;2023-03-23T07:50:19;99157.28;;;16.25;57.74
53246;BME280;39569;51.090;-1.786;2023-03-23T07:52:47;99147.63;;;17.52;55.12
53246;BME280;39569;51.090;-1.786;2023-03-23T07:55:14;99161.84;;;17.42;54.89
53246;BME280;39569;51.090;-1.786;2023-03-23T07:57:45;99141.97;;;17.53;55.02
53246;BME280;39569;51.090;-1.786;2023-03-23T08:00:14;99162.69;;;16.68;56.05
53246;BME280;39569;51.090;-1.786;2023-03-23T08:02:45;99148.84;;;17.39;55.42
53246;BME280;39569;51.090;-1.786;2023-03-23T08:05:11;99160.25;;;17.46;54.77
53246;BME280;39569;51.090;-1.786;2023-03-23T08:07:40;99161.53;;;17.65;54.29
53246;BME280;39569;51.090;-1.786;2023-03-23T08:10:08;99174.28;;;16.68;55.64
53246;BME280;39569;51.090;-1.786;2023-03-23T08:12:37;99169.53;;;17.92;54.02
53246;BME280;39569;51.090;-1.786;2023-03-23T08:15:06;99172.19;;;17.50;54.42
53246;BME280;39569;51.090;-1.786;2023-03-23T08:17:34;99175.75;;;17.29;54.92
53246;BME280;39569;51.090;-1.786;2023-03-23T08:20:02;99172.09;;;17.14;55.13
53246;BME280;39569;51.090;-1.786;2023-03-23T08:22:36;99167.22;;;18.11;53.20
53246;BME280;39569;51.090;-1.786;2023-03-23T08:25:04;99157.97;;;17.60;54.51
53246;BME280;39569;51.090;-1.786;2023-03-23T08:27:31;99178.19;;;17.04;55.80
53246;BME280;39569;51.090;-1.786;2023-03-23T08:29:58;99160.19;;;18.05;54.18
53246;BME280;39569;51.090;-1.786;2023-03-23T08:32:27;99162.53;;;17.91;55.08
53246;BME280;39569;51.090;-1.786;2023-03-23T08:34:53;99159.63;;;18.49;54.13
53246;BME280;39569;51.090;-1.786;2023-03-23T08:37:21;99166.13;;;17.70;55.68
53246;BME280;39569;51.090;-1.786;2023-03-23T08:39:50;99168.06;;;17.75;55.90
53246;BME280;39569;51.090;-1.786;2023-03-23T08:42:18;99153.22;;;18.66;54.47
53246;BME280;39569;51.090;-1.786;2023-03-23T08:44:45;99165.13;;;18.70;54.32
53246;BME280;39569;51.090;-1.786;2023-03-23T08:47:11;99170.72;;;18.06;55.42
53246;BME280;39569;51.090;-1.786;2023-03-23T08:49:40;99149.31;;;17.58;56.43
53246;BME280;39569;51.090;-1.786;2023-03-23T08:52:07;99170.19;;;17.67;55.60
53246;BME280;39569;51.090;-1.786;2023-03-23T08:54:35;99165.31;;;18.01;56.61
53246;BME280;39569;51.090;-1.786;2023-03-23T08:57:02;99156.41;;;18.47;54.85
53246;BME280;39569;51.090;-1.786;2023-03-23T08:59:29;99148.97;;;18.28;54.76
53246;BME280;39569;51.090;-1.786;2023-03-23T09:01:56;99157.19;;;18.01;55.65
53246;BME280;39569;51.090;-1.786;2023-03-23T09:04:22;99148.47;;;20.13;50.62
53246;BME280;39569;51.090;-1.786;2023-03-23T09:06:50;99155.00;;;19.87;51.37
53246;BME280;39569;51.090;-1.786;2023-03-23T09:09:17;99134.75;;;21.85;47.75
53246;BME280;39569;51.090;-1.786;2023-03-23T09:11:44;99144.41;;;21.33;46.34
53246;BME280;39569;51.090;-1.786;2023-03-23T09:14:11;99143.03;;;20.28;48.67
53246;BME280;39569;51.090;-1.786;2023-03-23T09:16:38;99145.81;;;19.68;48.71
53246;BME280;39569;51.090;-1.786;2023-03-23T09:19:05;99149.59;;;19.27;51.29
53246;BME280;39569;51.090;-1.786;2023-03-23T09:21:34;99157.81;;;18.18;53.63
53246;BME280;39569;51.090;-1.786;2023-03-23T09:24:02;99144.34;;;18.80;52.99
53246;BME280;39569;51.090;-1.786;2023-03-23T09:26:30;99154.00;;;18.66;53.12
53246;BME280;39569;51.090;-1.786;2023-03-23T09:28:57;99147.34;;;18.27;54.12
53246;BME280;39569;51.090;-1.786;2023-03-23T09:31:24;99149.78;;;17.87;55.23
53246;BME280;39569;51.090;-1.786;2023-03-23T09:33:53;99151.50;;;17.61;56.09
53246;BME280;39569;51.090;-1.786;2023-03-23T09:36:22;99145.53;;;19.44;52.81
53246;BME280;39569;51.090;-1.786;2023-03-23T09:38:51;99147.03;;;18.80;53.54
53246;BME280;39569;51.090;-1.786;2023-03-23T09:41:36;99140.28;;;18.26;54.32
53246;BME280;39569;51.090;-1.786;2023-03-23T09:44:16;99132.31;;;18.46;54.00
53246;BME280;39569;51.090;-1.786;2023-03-23T09:46:50;99156.13;;;18.02;54.05
53246;BME280;39569;51.090;-1.786;2023-03-23T09:49:20;99138.88;;;18.60;53.61
53246;BME280;39569;51.090;-1.786;2023-03-23T09:51:53;99143.81;;;18.26;54.80
53246;BME280;39569;51.090;-1.786;2023-03-23T09:54:23;99125.16;;;18.92;53.34
53246;BME280;39569;51.090;-1.786;2023-03-23T09:56:52;99128.53;;;18.47;54.02
53246;BME280;39569;51.090;-1.786;2023-03-23T09:59:23;99145.66;;;18.68;54.15
53246;BME280;39569;51.090;-1.786;2023-03-23T10:01:52;99147.81;;;18.76;54.02
53246;BME280;39569;51.090;-1.786;2023-03-23T10:04:30;99147.09;;;18.95;53.82
53246;BME280;39569;51.090;-1.786;2023-03-23T10:06:59;99145.81;;;19.58;51.76
53246;BME280;39569;51.090;-1.786;2023-03-23T10:09:28;99153.22;;;18.76;53.06
53246;BME280;39569;51.090;-1.786;2023-03-23T10:12:07;99179.31;;;17.98;54.86
53246;BME280;39569;51.090;-1.786;2023-03-23T10:14:49;99177.84;;;17.81;56.14
53246;BME280;39569;51.090;-1.786;2023-03-23T10:17:20;99178.16;;;17.84;56.08
53246;BME280;39569;51.090;-1.786;2023-03-23T10:19:52;99194.19;;;17.64;57.24
53246;BME280;39569;51.090;-1.786;2023-03-23T10:22:27;99188.34;;;17.45;57.81
53246;BME280;39569;51.090;-1.786;2023-03-23T10:25:02;99196.84;;;17.32;58.37
53246;BME280;39569;51.090;-1.786;2023-03-23T10:27:33;99185.00;;;18.02;56.91
53246;BME280;39569;51.090;-1.786;2023-03-23T10:30:15;99178.97;;;17.26;58.50
53246;BME280;39569;51.090;-1.786;2023-03-23T10:32:48;99179.22;;;17.25;59.89
53246;BME280;39569;51.090;-1.786;2023-03-23T10:35:19;99180.31;;;17.50;59.53
53246;BME280;39569;51.090;-1.786;2023-03-23T10:37:52;99186.94;;;17.43;59.22
53246;BME280;39569;51.090;-1.786;2023-03-23T10:40:22;99174.91;;;16.97;59.78
53246;BME280;39569;51.090;-1.786;2023-03-23T10:42:52;99177.75;;;18.49;56.77
53246;BME280;39569;51.090;-1.786;2023-03-23T10:45:21;99177.03;;;20.75;51.68
53246;BME280;39569;51.090;-1.786;2023-03-23T10:47:54;99193.34;;;18.37;53.03
53246;BME280;39569;51.090;-1.786;2023-03-23T10:50:25;99190.19;;;18.50;54.52
53246;BME280;39569;51.090;-1.786;2023-03-23T10:52:54;99189.34;;;19.16;52.90
53246;BME280;39569;51.090;-1.786;2023-03-23T10:55:24;99188.97;;;20.74;49.23
53246;BME280;39569;51.090;-1.786;2023-03-23T10:58:04;99184.25;;;19.35;50.75
53246;BME280;39569;51.090;-1.786;2023-03-23T11:00:32;99197.69;;;19.00;52.45
53246;BME280;39569;51.090;-1.786;2023-03-23T11:03:03;99205.84;;;19.20;51.66
53246;BME280;39569;51.090;-1.786;2023-03-23T11:05:36;99210.72;;;19.08;51.90
53246;BME280;39569;51.090;-1.786;2023-03-23T11:08:11;99216.16;;;18.51;51.56
53246;BME280;39569;51.090;-1.786;2023-03-23T11:10:41;99203.63;;;18.97;51.05
53246;BME280;39569;51.090;-1.786;2023-03-23T11:13:13;99188.31;;;21.02;46.82
53246;BME280;39569;51.090;-1.786;2023-03-23T11:15:42;99198.88;;;20.09;47.41
53246;BME280;39569;51.090;-1.786;2023-03-23T11:18:11;99199.97;;;20.33;48.40
53246;BME280;39569;51.090;-1.786;2023-03-23T11:20:40;99190.53;;;23.24;42.08
53246;BME280;39569;51.090;-1.786;2023-03-23T11:23:10;99191.16;;;22.79;40.46
53246;BME280;39569;51.090;-1.786;2023-03-23T11:25:52;99193.50;;;20.93;44.85
53246;BME280;39569;51.090;-1.786;2023-03-23T11:28:21;99174.38;;;22.90;42.48
53246;BME280;39569;51.090;-1.786;2023-03-23T11:30:53;99173.28;;;22.20;41.88
53246;BME280;39569;51.090;-1.786;2023-03-23T11:33:20;99176.56;;;21.21;43.91
53246;BME280;39569;51.090;-1.786;2023-03-23T11:35:52;99177.97;;;20.35;46.52
53246;BME280;39569;51.090;-1.786;2023-03-23T11:38:22;99165.63;;;20.78;45.69
53246;BME280;39569;51.090;-1.786;2023-03-23T11:40:51;99156.25;;;21.81;41.84
53246;BME280;39569;51.090;-1.786;2023-03-23T11:43:21;99154.03;;;22.64;42.06
53246;BME280;39569;51.090;-1.786;2023-03-23T11:45:58;99157.09;;;21.43;43.82
53246;BME280;39569;51.090;-1.786;2023-03-23T11:48:32;99156.72;;;21.93;42.35
53246;BME280;39569;51.090;-1.786;2023-03-23T11:51:03;99163.88;;;21.02;43.44
53246;BME280;39569;51.090;-1.786;2023-03-23T11:53:38;99173.69;;;20.19;45.29
53246;BME280;39569;51.090;-1.786;2023-03-23T11:56:12;99181.28;;;20.02;45.72
53246;BME280;39569;51.090;-1.786;2023-03-23T11:58:42;99161.44;;;21.05;44.61
53246;BME280;39569;51.090;-1.786;2023-03-23T12:01:16;99161.78;;;20.84;44.28
53246;BME280;39569;51.090;-1.786;2023-03-23T12:03:58;99141.34;;;22.78;41.88
53246;BME280;39569;51.090;-1.786;2023-03-23T12:06:36;99137.81;;;22.54;42.32
53246;BME280;39569;51.090;-1.786;2023-03-23T12:09:14;99140.16;;;23.59;39.38
53246;BME280;39569;51.090;-1.786;2023-03-23T12:11:53;99135.56;;;23.73;39.06
53246;BME280;39569;51.090;-1.786;2023-03-23T12:14:32;99129.69;;;23.66;39.32
53246;BME280;39569;51.090;-1.786;2023-03-23T12:17:10;99137.69;;;22.17;41.27
53246;BME280;39569;51.090;-1.786;2023-03-23T12:19:49;99133.31;;;23.05;40.12
53246;BME280;39569;51.090;-1.786;2023-03-23T12:22:28;99146.06;;;21.63;41.54
53246;BME280;39569;51.090;-1.786;2023-03-23T12:25:05;99120.31;;;21.56;42.19
53246;BME280;39569;51.090;-1.786;2023-03-23T12:27:44;99126.28;;;20.70;45.39
53246;BME280;39569;51.090;-1.786;2023-03-23T12:30:23;99123.66;;;20.55;45.79
53246;BME280;39569;51.090;-1.786;2023-03-23T12:33:09;99138.19;;;20.84;45.05
53246;BME280;39569;51.090;-1.786;2023-03-23T12:35:45;99146.84;;;20.02;46.07
53246;BME280;39569;51.090;-1.786;2023-03-23T12:38:46;99128.50;;;20.63;45.24
53246;BME280;39569;51.090;-1.786;2023-03-23T12:41:16;99120.50;;;20.87;45.41
53246;BME280;39569;51.090;-1.786;2023-03-23T12:43:50;99129.88;;;21.14;45.19
53246;BME280;39569;51.090;-1.786;2023-03-23T12:46:38;99133.59;;;21.23;44.60
53246;BME280;39569;51.090;-1.786;2023-03-23T12:49:15;99117.78;;;22.45;41.32
53246;BME280;39569;51.090;-1.786;2023-03-23T12:51:49;99134.84;;;21.02;43.77
53246;BME280;39569;51.090;-1.786;2023-03-23T12:54:23;99132.47;;;20.86;44.39
53246;BME280;39569;51.090;-1.786;2023-03-23T12:56:54;99125.66;;;20.34;46.16
53246;BME280;39569;51.090;-1.786;2023-03-23T12:59:33;99117.06;;;20.76;46.81
53246;BME280;39569;51.090;-1.786;2023-03-23T13:02:10;99118.41;;;20.00;48.77
53246;BME280;39569;51.090;-1.786;2023-03-23T13:04:42;99121.44;;;19.68;49.92